Etusivu
METAR-TAF:

METAR-TAF

Lentoasemat :

Sanderson Field Airport

Shelton, Washington, Yhdysvallat

Leveyspiiri: 47-14-17N, Pituuspiiri: 123-08-27W, korkeus merenpinnasta: 82 m

Tämänhetkinen sää

Tämä raportti tehtiin 28 minuuttia sitten, kello 15.53 UTC
Tuuli 5 kn lännestä
Lämpötila 13°C
Kosteus 88%
Ilmanpaine 1007 hPa
Näkyvyys: 16.1 km
Hajonneita pilviä 500 ft:n korkeudessa
Pilvistä 7500 ft:n korkeudessa

METAR: KSHN 191553Z AUTO 28005KT 10SM BKN005 OVC075 13/11 A2973 RMK AO2 SLP067 T01280106

Aika: 09:21 (16:21 UTC)


TAF: puuttuu

Säähavainnot ja -ennusteet yli 4000 lentoasemalta (METAR- ja TAF-raportit).

Käytössä olevat sääasemat on merkitty karttaan keltaisilla ja punaisilla pisteillä.

Aseta hiiri pisteen päälle nähdäksesi sääaseman nimen.

Klikkaa sitten nähdäksesi säähavainnot ja -ennusteet.

Kartan vaihtaminen: klikkaa mustalla rastilla varustettuja vihreitä pisteitä, niin voit zoomata sisään; viivalla varustettua vihreää pistettä, niin voit zoomata ulos tai vihreitä nuolia, niin pääset viereisille kartoille.


METAR-TAF: